createdAt,value
2019-03-03T00:00:38.485Z,1004.17
2019-03-03T00:01:38.504Z,1004.10
2019-03-03T00:02:38.520Z,1004.10
2019-03-03T00:03:38.538Z,1004.15
2019-03-03T00:04:38.558Z,1004.07
2019-03-03T00:05:38.575Z,1004.08
2019-03-03T00:06:38.590Z,1004.14
2019-03-03T00:07:38.609Z,1004.11
2019-03-03T00:08:38.624Z,1004.12
2019-03-03T00:09:38.644Z,1004.12
2019-03-03T00:10:38.660Z,1004.12
2019-03-03T00:11:38.678Z,1004.16
2019-03-03T00:12:38.696Z,1004.15
2019-03-03T00:13:38.714Z,1004.19
2019-03-03T00:14:38.729Z,1004.18
2019-03-03T00:15:38.745Z,1004.18
2019-03-03T00:16:38.765Z,1004.16
2019-03-03T00:17:38.788Z,1004.14
2019-03-03T00:18:38.806Z,1004.18
2019-03-03T00:19:38.815Z,1004.20
2019-03-03T00:20:38.831Z,1004.19
2019-03-03T00:21:38.859Z,1004.13
2019-03-03T00:22:38.873Z,1004.07
2019-03-03T00:23:38.924Z,1004.14
2019-03-03T00:24:39.058Z,1004.13
2019-03-03T00:25:39.913Z,1004.11
2019-03-03T00:26:38.941Z,1004.09
2019-03-03T00:27:38.954Z,1004.10
2019-03-03T00:28:38.978Z,1004.07
2019-03-03T00:29:39.000Z,1004.10
2019-03-03T00:30:39.007Z,1004.00
2019-03-03T00:31:39.024Z,1004.06
2019-03-03T00:32:39.039Z,1004.03
2019-03-03T00:33:39.059Z,1004.08
2019-03-03T00:34:39.076Z,1004.09
2019-03-03T00:35:39.090Z,1004.09
2019-03-03T00:36:39.107Z,1004.08
2019-03-03T00:37:39.128Z,1004.06
2019-03-03T00:38:39.146Z,1004.07
2019-03-03T00:39:39.160Z,1004.01
2019-03-03T00:40:39.189Z,1004.06
2019-03-03T00:41:39.195Z,1004.07
2019-03-03T00:42:39.515Z,1004.00
2019-03-03T00:43:39.238Z,1003.95
2019-03-03T00:44:39.245Z,1003.95
2019-03-03T00:45:39.265Z,1003.96
2019-03-03T00:46:39.328Z,1003.95
2019-03-03T00:47:39.298Z,1003.89
2019-03-03T00:48:39.318Z,1003.89
2019-03-03T00:49:39.334Z,1003.90
2019-03-03T00:50:39.358Z,1003.89
2019-03-03T00:51:39.366Z,1003.86
2019-03-03T00:52:39.386Z,1003.91
2019-03-03T00:53:39.406Z,1003.92
2019-03-03T00:54:39.421Z,1003.87
2019-03-03T00:55:39.435Z,1003.86
2019-03-03T00:56:39.456Z,1003.89
2019-03-03T00:57:39.473Z,1003.85
2019-03-03T00:58:39.489Z,1003.82
2019-03-03T00:59:39.504Z,1003.77
2019-03-03T01:00:39.524Z,1003.76
2019-03-03T01:01:39.542Z,1003.73
2019-03-03T01:02:39.557Z,1003.77
2019-03-03T01:03:39.580Z,1003.71
2019-03-03T01:04:39.596Z,1003.78
2019-03-03T01:05:39.611Z,1003.75
2019-03-03T01:06:39.633Z,1003.70
2019-03-03T01:07:39.642Z,1003.74
2019-03-03T01:08:39.668Z,1003.71
2019-03-03T01:09:39.683Z,1003.66
2019-03-03T01:10:39.696Z,1003.74
2019-03-03T01:11:39.720Z,1003.70
2019-03-03T01:12:39.734Z,1003.72
2019-03-03T01:13:39.759Z,1003.68
2019-03-03T01:14:39.764Z,1003.65
2019-03-03T01:15:39.783Z,1003.67
2019-03-03T01:16:39.798Z,1003.72
2019-03-03T01:17:39.818Z,1003.64
2019-03-03T01:18:39.839Z,1003.66
2019-03-03T01:19:39.852Z,1003.60
2019-03-03T01:20:39.866Z,1003.62
2019-03-03T01:21:39.885Z,1003.62
2019-03-03T01:22:39.904Z,1003.49
2019-03-03T01:23:39.921Z,1003.43
2019-03-03T01:24:39.938Z,1003.41
2019-03-03T01:25:39.957Z,1003.39
2019-03-03T01:26:39.974Z,1003.45
2019-03-03T01:27:39.994Z,1003.32
2019-03-03T01:28:40.011Z,1003.29
2019-03-03T01:29:40.023Z,1003.31
2019-03-03T01:30:40.044Z,1003.32
2019-03-03T01:31:40.058Z,1003.30
2019-03-03T01:32:40.075Z,1003.21
2019-03-03T01:33:40.094Z,1003.20
2019-03-03T01:34:40.118Z,1003.20
2019-03-03T01:35:40.126Z,1003.20
2019-03-03T01:36:40.147Z,1003.18
2019-03-03T01:37:40.160Z,1003.12
2019-03-03T01:38:40.181Z,1003.14
2019-03-03T01:39:40.195Z,1003.17
2019-03-03T01:40:40.212Z,1003.10
2019-03-03T01:41:40.232Z,1003.08
2019-03-03T01:42:40.247Z,1003.16
2019-03-03T01:43:40.266Z,1003.17
2019-03-03T01:44:40.283Z,1003.07
2019-03-03T01:45:40.301Z,1003.10
2019-03-03T01:46:40.318Z,1003.12
2019-03-03T01:47:40.335Z,1003.09
2019-03-03T01:48:40.356Z,1003.05
2019-03-03T01:49:40.370Z,1003.04
2019-03-03T01:50:40.390Z,1003.09
2019-03-03T01:51:40.407Z,1003.09
2019-03-03T01:52:40.419Z,1003.07
2019-03-03T01:53:40.437Z,1003.03
2019-03-03T01:54:40.459Z,1003.02
2019-03-03T01:55:40.476Z,1002.99
2019-03-03T01:56:40.488Z,1003.00
2019-03-03T01:57:40.505Z,1002.98
2019-03-03T01:58:40.523Z,1002.97
2019-03-03T01:59:40.539Z,1003.05
2019-03-03T02:00:40.560Z,1003.01
2019-03-03T02:01:40.574Z,1003.00
2019-03-03T02:02:40.592Z,1003.01
2019-03-03T02:03:40.612Z,1002.98
2019-03-03T02:04:40.626Z,1002.89
2019-03-03T02:05:40.642Z,1002.89
2019-03-03T02:06:40.667Z,1002.95
2019-03-03T02:07:40.676Z,1002.95
2019-03-03T02:08:40.695Z,1002.92
2019-03-03T02:09:40.712Z,1002.94
2019-03-03T02:10:40.729Z,1002.92
2019-03-03T02:11:40.746Z,1002.90
2019-03-03T02:12:40.764Z,1002.84
2019-03-03T02:13:40.781Z,1002.84
2019-03-03T02:14:40.798Z,1002.80
2019-03-03T02:15:40.814Z,1002.82
2019-03-03T02:16:40.835Z,1002.75
2019-03-03T02:17:40.858Z,1002.74
2019-03-03T02:18:40.877Z,1002.74
2019-03-03T02:19:40.884Z,1002.76
2019-03-03T02:20:40.907Z,1002.71
2019-03-03T02:21:40.924Z,1002.64
2019-03-03T02:22:40.936Z,1002.61
2019-03-03T02:23:40.955Z,1002.61
2019-03-03T02:24:40.969Z,1002.53
2019-03-03T02:25:40.988Z,1002.54
2019-03-03T02:26:41.011Z,1002.53
2019-03-03T02:27:41.031Z,1002.57
2019-03-03T02:28:41.041Z,1002.58
2019-03-03T02:29:41.059Z,1002.48
2019-03-03T02:30:41.074Z,1002.51
2019-03-03T02:31:41.092Z,1002.46
2019-03-03T02:32:41.108Z,1002.42
2019-03-03T02:33:41.179Z,1002.41
2019-03-03T02:34:41.147Z,1002.47
2019-03-03T02:35:41.163Z,1002.45
2019-03-03T02:36:41.178Z,1002.42
2019-03-03T02:37:41.202Z,1002.29
2019-03-03T02:38:41.220Z,1002.37
2019-03-03T02:39:41.242Z,1002.32
2019-03-03T02:40:41.248Z,1002.39
2019-03-03T02:41:41.299Z,1002.30
2019-03-03T02:42:41.284Z,1002.33
2019-03-03T02:43:41.304Z,1002.34
2019-03-03T02:44:41.317Z,1002.27
2019-03-03T02:45:41.338Z,1002.24
2019-03-03T02:46:41.359Z,1002.23
2019-03-03T02:47:41.391Z,1002.28
2019-03-03T02:48:41.384Z,1002.26
2019-03-03T02:49:41.416Z,1002.29
2019-03-03T02:50:41.421Z,1002.24
2019-03-03T02:51:41.437Z,1002.18
2019-03-03T02:52:41.454Z,1002.16
2019-03-03T02:53:41.480Z,1002.13
2019-03-03T02:54:41.489Z,1002.14
2019-03-03T02:55:41.514Z,1002.07
2019-03-03T02:56:41.523Z,1002.08
2019-03-03T02:57:41.548Z,1001.99
2019-03-03T02:58:41.558Z,1002.07
2019-03-03T02:59:41.574Z,1002.05
2019-03-03T03:00:41.592Z,1002.08
2019-03-03T03:01:41.614Z,1002.02
2019-03-03T03:02:41.628Z,1002.02
2019-03-03T03:03:41.652Z,1002.03
2019-03-03T03:04:41.668Z,1002.06
2019-03-03T03:05:41.682Z,1002.05
2019-03-03T03:06:41.697Z,1002.11
2019-03-03T03:07:41.726Z,1002.12
2019-03-03T03:08:41.733Z,1002.06
2019-03-03T03:09:41.747Z,1002.05
2019-03-03T03:10:41.766Z,1002.01
2019-03-03T03:11:41.781Z,1002.02
2019-03-03T03:12:41.804Z,1001.97
2019-03-03T03:13:41.812Z,1002.00
2019-03-03T03:14:41.831Z,1001.98
2019-03-03T03:15:41.849Z,1001.95
2019-03-03T03:16:41.871Z,1001.92
2019-03-03T03:17:41.883Z,1001.88
2019-03-03T03:18:41.905Z,1001.83
2019-03-03T03:19:41.917Z,1001.94
2019-03-03T03:20:41.934Z,1001.87
2019-03-03T03:21:41.953Z,1001.86
2019-03-03T03:22:41.979Z,1001.87
2019-03-03T03:23:41.997Z,1001.88
2019-03-03T03:24:42.004Z,1001.95
2019-03-03T03:25:42.022Z,1001.94
2019-03-03T03:26:42.045Z,1001.93
2019-03-03T03:27:42.054Z,1001.93
2019-03-03T03:28:42.073Z,1001.83
2019-03-03T03:29:42.097Z,1001.83
2019-03-03T03:30:42.106Z,1001.79
2019-03-03T03:31:42.126Z,1001.85
2019-03-03T03:32:42.146Z,1001.74
2019-03-03T03:33:42.195Z,1001.84
2019-03-03T03:34:42.176Z,1001.86
2019-03-03T03:35:42.190Z,1001.86
2019-03-03T03:36:42.218Z,1001.85
2019-03-03T03:37:42.229Z,1001.87
2019-03-03T03:38:42.244Z,1001.86
2019-03-03T03:39:42.259Z,1001.83
2019-03-03T03:40:42.277Z,1001.86
2019-03-03T03:41:42.294Z,1001.92
2019-03-03T03:42:42.315Z,1001.90
2019-03-03T03:43:42.330Z,1001.94
2019-03-03T03:44:42.348Z,1001.90
2019-03-03T03:45:42.366Z,1001.92
2019-03-03T03:46:42.390Z,1001.84
2019-03-03T03:47:42.398Z,1001.82
2019-03-03T03:48:42.418Z,1001.80
2019-03-03T03:49:42.455Z,1001.78
2019-03-03T03:50:42.456Z,1001.77
2019-03-03T03:51:42.472Z,1001.69
2019-03-03T03:52:42.486Z,1001.81
2019-03-03T03:53:42.500Z,1001.70
2019-03-03T03:54:42.524Z,1001.60
2019-03-03T03:55:42.543Z,1001.65
2019-03-03T03:56:42.556Z,1001.59
2019-03-03T03:57:42.577Z,1001.60
2019-03-03T03:58:42.590Z,1001.62
2019-03-03T03:59:42.606Z,1001.55
2019-03-03T04:00:42.634Z,1001.54
2019-03-03T04:01:42.639Z,1001.58
2019-03-03T04:02:42.661Z,1001.60
2019-03-03T04:03:42.676Z,1001.55
2019-03-03T04:04:42.701Z,1001.57
2019-03-03T04:05:42.712Z,1001.58
2019-03-03T04:06:42.735Z,1001.52
2019-03-03T04:07:42.744Z,1001.56
2019-03-03T04:08:42.761Z,1001.54
2019-03-03T04:09:42.778Z,1001.54
2019-03-03T04:10:42.793Z,1001.52
2019-03-03T04:11:42.812Z,1001.51
2019-03-03T04:12:42.844Z,1001.49
2019-03-03T04:13:42.844Z,1001.45
2019-03-03T04:14:42.867Z,1001.43
2019-03-03T04:15:42.879Z,1001.43
2019-03-03T04:16:42.899Z,1001.47
2019-03-03T04:17:42.915Z,1001.49
2019-03-03T04:18:42.936Z,1001.51
2019-03-03T04:19:42.948Z,1001.50
2019-03-03T04:20:42.968Z,1001.45
2019-03-03T04:21:42.986Z,1001.47
2019-03-03T04:22:43.005Z,1001.49
2019-03-03T04:23:43.016Z,1001.46
2019-03-03T04:24:43.037Z,1001.45
2019-03-03T04:25:43.054Z,1001.41
2019-03-03T04:26:43.072Z,1001.38
2019-03-03T04:27:43.085Z,1001.39
2019-03-03T04:28:43.102Z,1001.35
2019-03-03T04:29:43.129Z,1001.42
2019-03-03T04:30:43.137Z,1001.40
2019-03-03T04:31:43.154Z,1001.42
2019-03-03T04:32:43.173Z,1001.37
2019-03-03T04:33:43.191Z,1001.44
2019-03-03T04:34:43.209Z,1001.39
2019-03-03T04:35:43.230Z,1001.39
2019-03-03T04:36:43.243Z,1001.43
2019-03-03T04:37:43.259Z,1001.37
2019-03-03T04:38:43.278Z,1001.40
2019-03-03T04:39:43.302Z,1001.35
2019-03-03T04:40:43.310Z,1001.38
2019-03-03T04:41:43.334Z,1001.31
2019-03-03T04:42:43.347Z,1001.31
2019-03-03T04:43:43.362Z,1001.26
2019-03-03T04:44:43.387Z,1001.23
2019-03-03T04:45:43.396Z,1001.24
2019-03-03T04:46:43.415Z,1001.24
2019-03-03T04:47:43.433Z,1001.26
2019-03-03T04:48:43.459Z,1001.23
2019-03-03T04:49:43.466Z,1001.26
2019-03-03T04:50:43.492Z,1001.21
2019-03-03T04:51:43.500Z,1001.14
2019-03-03T04:52:43.518Z,1001.14
2019-03-03T04:53:43.542Z,1001.18
2019-03-03T04:54:43.551Z,1001.14
2019-03-03T04:55:43.569Z,1001.06
2019-03-03T04:56:43.589Z,1001.01
2019-03-03T04:57:43.606Z,1001.06
2019-03-03T04:58:43.631Z,1001.05
2019-03-03T04:59:43.639Z,1001.12
2019-03-03T05:00:43.657Z,1001.01
2019-03-03T05:01:43.673Z,1001.05
2019-03-03T05:02:43.692Z,1001.00
2019-03-03T05:03:43.714Z,1000.95
2019-03-03T05:04:43.731Z,1001.04
2019-03-03T05:05:43.743Z,1000.92
2019-03-03T05:06:43.757Z,1000.91
2019-03-03T05:07:43.774Z,1000.94
2019-03-03T05:08:43.792Z,1000.97
2019-03-03T05:09:43.810Z,1000.89
2019-03-03T05:10:43.828Z,1000.91
2019-03-03T05:11:43.841Z,1000.92
2019-03-03T05:12:43.861Z,1000.89
2019-03-03T05:13:43.877Z,1000.90
2019-03-03T05:14:43.898Z,1000.89
2019-03-03T05:15:43.913Z,1000.90
2019-03-03T05:16:43.926Z,1000.91
2019-03-03T05:17:43.949Z,1000.90
2019-03-03T05:18:43.966Z,1000.88
2019-03-03T05:19:43.978Z,1000.91
2019-03-03T05:20:43.995Z,1000.91
2019-03-03T05:21:44.012Z,1000.92
2019-03-03T05:22:44.031Z,1000.90
2019-03-03T05:23:44.050Z,1000.90
2019-03-03T05:24:44.062Z,1000.88
2019-03-03T05:25:44.082Z,1000.91
2019-03-03T05:26:44.099Z,1000.96
2019-03-03T05:27:44.122Z,1000.90
2019-03-03T05:28:44.130Z,1000.91
2019-03-03T05:29:44.147Z,1000.90
2019-03-03T05:30:44.165Z,1000.95
2019-03-03T05:31:44.183Z,1000.90
2019-03-03T05:32:44.198Z,1000.90
2019-03-03T05:33:44.214Z,1000.92
2019-03-03T05:34:44.241Z,1000.92
2019-03-03T05:35:44.256Z,1000.93
2019-03-03T05:36:44.267Z,1000.86
2019-03-03T05:37:44.284Z,1000.89
2019-03-03T05:38:44.299Z,1000.86
2019-03-03T05:39:44.327Z,1000.85
2019-03-03T05:40:44.334Z,1000.81
2019-03-03T05:41:44.358Z,1000.85
2019-03-03T05:42:44.372Z,1000.82
2019-03-03T05:43:44.384Z,1000.77
2019-03-03T05:44:44.402Z,1000.76
2019-03-03T05:45:44.416Z,1000.73
2019-03-03T05:46:44.435Z,1000.77
2019-03-03T05:47:44.450Z,1000.68
2019-03-03T05:48:44.469Z,1000.74
2019-03-03T05:49:44.485Z,1000.67
2019-03-03T05:50:44.502Z,1000.64
2019-03-03T05:51:44.518Z,1000.63
2019-03-03T05:52:44.534Z,1000.65
2019-03-03T05:53:44.557Z,1000.69
2019-03-03T05:54:44.570Z,1000.62
2019-03-03T05:55:44.591Z,1000.73
2019-03-03T05:56:44.607Z,1000.74
2019-03-03T05:57:44.618Z,1000.69
2019-03-03T05:58:44.638Z,1000.66
2019-03-03T05:59:44.656Z,1000.72
2019-03-03T06:00:44.681Z,1000.71
2019-03-03T06:01:44.728Z,1000.70
2019-03-03T06:02:44.713Z,1000.72
2019-03-03T06:03:44.722Z,1000.66
2019-03-03T06:04:44.739Z,1000.63
2019-03-03T06:05:44.754Z,1000.64
2019-03-03T06:06:44.772Z,1000.68
2019-03-03T06:07:44.793Z,1000.63
2019-03-03T06:08:44.804Z,1000.68
2019-03-03T06:09:44.821Z,1000.67
2019-03-03T06:10:44.841Z,1000.62
2019-03-03T06:11:44.853Z,1000.60
2019-03-03T06:12:44.878Z,1000.62
2019-03-03T06:13:44.891Z,1000.65
2019-03-03T06:14:44.907Z,1000.59
2019-03-03T06:15:44.923Z,1000.64
2019-03-03T06:16:44.941Z,1000.60
2019-03-03T06:17:44.958Z,1000.61
2019-03-03T06:18:44.973Z,1000.69
2019-03-03T06:19:44.991Z,1000.72
2019-03-03T06:20:45.005Z,1000.74
2019-03-03T06:21:45.030Z,1000.71
2019-03-03T06:22:45.040Z,1000.71
2019-03-03T06:23:45.056Z,1000.70
2019-03-03T06:24:45.078Z,1000.69
2019-03-03T06:25:45.093Z,1000.72
2019-03-03T06:26:45.109Z,1000.70
2019-03-03T06:27:45.125Z,1000.74
2019-03-03T06:28:45.148Z,1000.75
2019-03-03T06:29:45.162Z,1000.76
2019-03-03T06:30:45.173Z,1000.76
2019-03-03T06:31:45.193Z,1000.75
2019-03-03T06:32:45.207Z,1000.83
2019-03-03T06:33:45.224Z,1000.77
2019-03-03T06:34:45.243Z,1000.73
2019-03-03T06:35:45.257Z,1000.70
2019-03-03T06:36:45.283Z,1000.71
2019-03-03T06:37:45.297Z,1000.75
2019-03-03T06:38:45.309Z,1000.73
2019-03-03T06:39:45.326Z,1000.71
2019-03-03T06:40:45.341Z,1000.67
2019-03-03T06:41:45.360Z,1000.70
2019-03-03T06:42:45.375Z,1000.70
2019-03-03T06:43:45.389Z,1000.73
2019-03-03T06:44:45.407Z,1000.69
2019-03-03T06:45:45.428Z,1000.70
2019-03-03T06:46:45.441Z,1000.62
2019-03-03T06:47:45.462Z,1000.65
2019-03-03T06:48:45.476Z,1000.68
2019-03-03T06:49:45.490Z,1000.67
2019-03-03T06:50:45.519Z,1000.60
2019-03-03T06:51:45.532Z,1000.65
2019-03-03T06:52:45.543Z,1000.68
2019-03-03T06:53:45.557Z,1000.66
2019-03-03T06:54:45.576Z,1000.65
2019-03-03T06:55:45.590Z,1000.66
2019-03-03T06:56:45.607Z,1000.66
2019-03-03T06:57:45.631Z,1000.68
2019-03-03T06:58:45.639Z,1000.73
2019-03-03T06:59:45.662Z,1000.66
2019-03-03T07:00:45.676Z,1000.66
2019-03-03T07:01:45.690Z,1000.69
2019-03-03T07:02:45.714Z,1000.64
2019-03-03T07:03:45.722Z,1000.65
2019-03-03T07:04:45.742Z,1000.63
2019-03-03T07:05:45.756Z,1000.60
2019-03-03T07:06:45.774Z,1000.68
2019-03-03T07:07:45.792Z,1000.59
2019-03-03T07:08:45.806Z,1000.68
2019-03-03T07:09:45.823Z,1000.69
2019-03-03T07:10:45.843Z,1000.69
2019-03-03T07:11:45.857Z,1000.70
2019-03-03T07:12:45.875Z,1000.71
2019-03-03T07:13:45.892Z,1000.71
2019-03-03T07:14:45.907Z,1000.72
2019-03-03T07:15:45.929Z,1000.66
2019-03-03T07:16:45.946Z,1000.68
2019-03-03T07:17:45.958Z,1000.67
2019-03-03T07:18:45.973Z,1000.67
2019-03-03T07:19:45.991Z,1000.66
2019-03-03T07:20:46.009Z,1000.66
2019-03-03T07:21:46.023Z,1000.65
2019-03-03T07:22:46.042Z,1000.65
2019-03-03T07:23:46.058Z,1000.69
2019-03-03T07:24:46.075Z,1000.65
2019-03-03T07:25:46.091Z,1000.64
2019-03-03T07:26:46.107Z,1000.64
2019-03-03T07:27:46.126Z,1000.72
2019-03-03T07:28:46.140Z,1000.69
2019-03-03T07:29:46.158Z,1000.62
2019-03-03T07:30:46.184Z,1000.66
2019-03-03T07:31:46.196Z,1000.64
2019-03-03T07:32:46.209Z,1000.68
2019-03-03T07:33:46.226Z,1000.67
2019-03-03T07:34:47.118Z,1000.73
2019-03-03T07:35:46.260Z,1000.69
2019-03-03T07:36:46.275Z,1000.64
2019-03-03T07:37:46.293Z,1000.68
2019-03-03T07:38:46.314Z,1000.64
2019-03-03T07:39:46.323Z,1000.68
2019-03-03T07:40:46.342Z,1000.73
2019-03-03T07:41:46.360Z,1000.66
2019-03-03T07:42:46.382Z,1000.71
2019-03-03T07:43:46.392Z,1000.68
2019-03-03T07:44:46.408Z,1000.65
2019-03-03T07:45:46.429Z,1000.66
2019-03-03T07:46:46.440Z,1000.65
2019-03-03T07:47:46.456Z,1000.72
2019-03-03T07:48:46.473Z,1000.73
2019-03-03T07:49:46.495Z,1000.66
2019-03-03T07:50:46.508Z,1000.70
2019-03-03T07:51:46.523Z,1000.82
2019-03-03T07:52:46.550Z,1000.69
2019-03-03T07:53:46.559Z,1000.72
2019-03-03T07:54:46.581Z,1000.76
2019-03-03T07:55:46.596Z,1000.75
2019-03-03T07:56:46.714Z,1000.76
2019-03-03T07:57:46.973Z,1000.80
2019-03-03T07:58:46.647Z,1000.72
2019-03-03T07:59:46.658Z,1000.73
2019-03-03T08:00:46.675Z,1000.76
2019-03-03T08:01:46.692Z,1000.79
2019-03-03T08:02:46.707Z,1000.84
2019-03-03T08:03:46.726Z,1000.79
2019-03-03T08:04:46.744Z,1000.86
2019-03-03T08:05:46.759Z,1000.83
2019-03-03T08:06:46.783Z,1000.84
2019-03-03T08:07:46.792Z,1000.79
2019-03-03T08:08:46.811Z,1000.78
2019-03-03T08:09:46.831Z,1000.82
2019-03-03T08:10:46.845Z,1000.80
2019-03-03T08:11:46.861Z,1000.76
2019-03-03T08:12:46.881Z,1000.80
2019-03-03T08:13:46.892Z,1000.79
2019-03-03T08:14:46.915Z,1000.80
2019-03-03T08:15:46.926Z,1000.77
2019-03-03T08:16:46.943Z,1000.80
2019-03-03T08:17:46.962Z,1000.80
2019-03-03T08:18:46.980Z,1000.80
2019-03-03T08:19:46.994Z,1000.79
2019-03-03T08:20:47.011Z,1000.80
2019-03-03T08:21:47.028Z,1000.76
2019-03-03T08:22:47.044Z,1000.83
2019-03-03T08:23:47.065Z,1000.78
2019-03-03T08:24:47.081Z,1000.77
2019-03-03T08:25:47.102Z,1000.81
2019-03-03T08:26:47.120Z,1000.76
2019-03-03T08:27:47.155Z,1000.77
2019-03-03T08:28:47.148Z,1000.81
2019-03-03T08:29:47.263Z,1000.84
2019-03-03T08:30:47.186Z,1000.81
2019-03-03T08:31:47.196Z,1000.78
2019-03-03T08:32:47.215Z,1000.81
2019-03-03T08:33:47.239Z,1000.77
2019-03-03T08:34:47.250Z,1000.69
2019-03-03T08:35:47.270Z,1000.81
2019-03-03T08:36:47.284Z,1000.81
2019-03-03T08:37:47.314Z,1000.74
2019-03-03T08:38:47.315Z,1000.81
2019-03-03T08:39:47.338Z,1000.85
2019-03-03T08:40:47.349Z,1000.87
2019-03-03T08:41:47.375Z,1000.89
2019-03-03T08:42:47.392Z,1000.82
2019-03-03T08:43:47.405Z,1000.86
2019-03-03T08:44:47.419Z,1000.79
2019-03-03T08:45:47.434Z,1000.84
2019-03-03T08:46:47.451Z,1000.84
2019-03-03T08:47:53.244Z,1000.84
2019-03-03T08:48:47.487Z,1000.84
2019-03-03T08:49:47.505Z,1000.85
2019-03-03T08:50:47.521Z,1000.88
2019-03-03T08:51:47.535Z,1000.80
2019-03-03T08:52:47.553Z,1000.83
2019-03-03T08:53:47.572Z,1000.85
2019-03-03T08:54:47.593Z,1000.81
2019-03-03T08:55:47.603Z,1000.82
2019-03-03T08:56:47.629Z,1000.81
2019-03-03T08:57:47.639Z,1000.83
2019-03-03T08:58:47.656Z,1000.85
2019-03-03T08:59:47.671Z,1000.82
2019-03-03T09:00:47.687Z,1000.81
2019-03-03T09:01:47.707Z,1000.80
2019-03-03T09:02:47.725Z,1000.78
2019-03-03T09:03:47.741Z,1000.85
2019-03-03T09:04:47.755Z,1000.78
2019-03-03T09:05:47.775Z,1000.79
2019-03-03T09:06:47.793Z,1000.77
2019-03-03T09:07:47.809Z,1000.74
2019-03-03T09:08:47.832Z,1000.80
2019-03-03T09:09:47.844Z,1000.78
2019-03-03T09:10:47.861Z,1000.81
2019-03-03T09:11:47.873Z,1000.76
2019-03-03T09:12:47.894Z,1000.82
2019-03-03T09:13:47.911Z,1000.83
2019-03-03T09:14:47.930Z,1000.77
2019-03-03T09:15:47.944Z,1000.79
2019-03-03T09:16:48.436Z,1000.78
2019-03-03T09:17:47.977Z,1000.75
2019-03-03T09:18:47.992Z,1000.80
2019-03-03T09:19:48.011Z,1000.78
2019-03-03T09:20:48.026Z,1000.79
2019-03-03T09:21:48.050Z,1000.80
2019-03-03T09:22:48.069Z,1000.78
2019-03-03T09:23:48.079Z,1000.78
2019-03-03T09:24:48.096Z,1000.74
2019-03-03T09:25:48.114Z,1000.76
2019-03-03T09:26:48.129Z,1000.75
2019-03-03T09:27:48.152Z,1000.74
2019-03-03T09:28:48.166Z,1000.66
2019-03-03T09:29:48.181Z,1000.76
2019-03-03T09:30:48.195Z,1000.78
2019-03-03T09:31:48.213Z,1000.70
2019-03-03T09:32:48.230Z,1000.73
2019-03-03T09:33:49.541Z,1000.69
2019-03-03T09:34:48.264Z,1000.68
2019-03-03T09:35:48.279Z,1000.72
2019-03-03T09:36:48.347Z,1000.68
2019-03-03T09:37:48.316Z,1000.69
2019-03-03T09:38:48.331Z,1000.78
2019-03-03T09:39:48.350Z,1000.68
2019-03-03T09:40:48.365Z,1000.73
2019-03-03T09:41:48.386Z,1000.66
2019-03-03T09:42:49.199Z,1000.68
2019-03-03T09:43:48.414Z,1000.68
2019-03-03T09:44:48.432Z,1000.68
2019-03-03T09:45:48.449Z,1000.66
2019-03-03T09:46:48.472Z,1000.68
2019-03-03T09:47:48.487Z,1000.66
2019-03-03T09:48:48.500Z,1000.65
2019-03-03T09:49:48.519Z,1000.67
2019-03-03T09:50:48.535Z,1000.64
2019-03-03T09:51:48.550Z,1000.66
2019-03-03T09:52:48.569Z,1000.65
2019-03-03T09:53:48.587Z,1000.66
2019-03-03T09:54:50.376Z,1000.60
2019-03-03T09:55:48.618Z,1000.66
2019-03-03T09:56:48.636Z,1000.66
2019-03-03T09:57:48.655Z,1000.66
2019-03-03T09:58:48.673Z,1000.60
2019-03-03T09:59:48.686Z,1000.66
2019-03-03T10:00:48.704Z,1000.63
2019-03-03T10:01:48.722Z,1000.63
2019-03-03T10:02:48.740Z,1000.65
2019-03-03T10:03:48.757Z,1000.61
2019-03-03T10:04:48.775Z,1000.58
2019-03-03T10:05:48.792Z,1000.62
2019-03-03T10:06:48.809Z,1000.59
2019-03-03T10:07:48.831Z,1000.55
2019-03-03T10:08:48.848Z,1000.62
2019-03-03T10:09:48.861Z,1000.64
2019-03-03T10:10:48.875Z,1000.59
2019-03-03T10:11:48.890Z,1000.56
2019-03-03T10:12:48.913Z,1000.56
2019-03-03T10:13:48.927Z,1000.52
2019-03-03T10:14:48.943Z,1000.58
2019-03-03T10:15:48.959Z,1000.53
2019-03-03T10:16:49.002Z,1000.50
2019-03-03T10:17:48.996Z,1000.50
2019-03-03T10:18:49.014Z,1000.56
2019-03-03T10:19:49.030Z,1000.50
2019-03-03T10:20:49.045Z,1000.60
2019-03-03T10:21:49.065Z,1000.63
2019-03-03T10:22:49.080Z,1000.59
2019-03-03T10:23:49.098Z,1000.59
2019-03-03T10:24:49.122Z,1000.51
2019-03-03T10:25:49.132Z,1000.62
2019-03-03T10:26:49.148Z,1000.58
2019-03-03T10:27:49.167Z,1000.52
2019-03-03T10:28:49.184Z,1000.62
2019-03-03T10:29:49.202Z,1000.56
2019-03-03T10:30:49.217Z,1000.60
2019-03-03T10:31:49.232Z,1000.63
2019-03-03T10:32:49.254Z,1000.62
2019-03-03T10:33:49.278Z,1000.60
2019-03-03T10:34:49.286Z,1000.60
2019-03-03T10:35:49.302Z,1000.55
2019-03-03T10:36:49.319Z,1000.55
2019-03-03T10:37:49.337Z,1000.54
2019-03-03T10:38:49.356Z,1000.57
2019-03-03T10:39:49.376Z,1000.46
2019-03-03T10:40:49.388Z,1000.40
2019-03-03T10:41:49.409Z,1000.54
2019-03-03T10:42:49.423Z,1000.51
2019-03-03T10:43:49.447Z,1000.54
2019-03-03T10:44:49.457Z,1000.51
2019-03-03T10:45:49.476Z,1000.49
2019-03-03T10:46:49.498Z,1000.49
2019-03-03T10:47:49.511Z,1000.48
2019-03-03T10:48:49.526Z,1000.56
2019-03-03T10:49:49.544Z,1000.45
2019-03-03T10:50:49.561Z,1000.45
2019-03-03T10:51:49.577Z,1000.49
2019-03-03T10:52:49.596Z,1000.45
2019-03-03T10:53:49.620Z,1000.51
2019-03-03T10:54:49.630Z,1000.51
2019-03-03T10:55:49.645Z,1000.45
2019-03-03T10:56:49.666Z,1000.46
2019-03-03T10:57:49.682Z,1000.49
2019-03-03T10:58:49.701Z,1000.45
2019-03-03T10:59:54.978Z,1000.51
2019-03-03T11:00:49.733Z,1000.44
2019-03-03T11:01:49.751Z,1000.41
2019-03-03T11:02:49.878Z,1000.43
2019-03-03T11:03:49.793Z,1000.41
2019-03-03T11:04:49.808Z,1000.38
2019-03-03T11:05:49.919Z,1000.36
2019-03-03T11:06:49.837Z,1000.36
2019-03-03T11:07:49.855Z,1000.40
2019-03-03T11:08:49.873Z,1000.35
2019-03-03T11:09:49.892Z,1000.38
2019-03-03T11:10:57.285Z,1000.31
2019-03-03T11:11:49.925Z,1000.42
2019-03-03T11:12:49.941Z,1000.39
2019-03-03T11:13:49.985Z,1000.40
2019-03-03T11:14:49.976Z,1000.39
2019-03-03T11:15:49.995Z,1000.35
2019-03-03T11:16:50.037Z,1000.36
2019-03-03T11:17:50.028Z,1000.43
2019-03-03T11:18:55.950Z,1000.42
2019-03-03T11:19:50.064Z,1000.38
2019-03-03T11:20:50.082Z,1000.36
2019-03-03T11:21:50.097Z,1000.36
2019-03-03T11:22:50.114Z,1000.38
2019-03-03T11:23:50.134Z,1000.30
2019-03-03T11:24:50.148Z,1000.43
2019-03-03T11:25:50.174Z,1000.41
2019-03-03T11:26:50.184Z,1000.31
2019-03-03T11:27:50.207Z,1000.32
2019-03-03T11:28:50.224Z,1000.37
2019-03-03T11:29:50.240Z,1000.33
2019-03-03T11:30:50.257Z,1000.33
2019-03-03T11:31:50.274Z,1000.30
2019-03-03T11:32:50.308Z,1000.37
2019-03-03T11:33:50.307Z,1000.34
2019-03-03T11:34:50.323Z,1000.32
2019-03-03T11:35:50.342Z,1000.39
2019-03-03T11:36:50.361Z,1000.36
2019-03-03T11:37:50.377Z,1000.25
2019-03-03T11:38:50.398Z,1000.30
2019-03-03T11:39:50.410Z,1000.35
2019-03-03T11:40:50.429Z,1000.31
2019-03-03T11:41:50.446Z,1000.30
2019-03-03T11:42:50.465Z,1000.31
2019-03-03T11:43:50.485Z,1000.20
2019-03-03T11:44:50.499Z,1000.24
2019-03-03T11:45:50.524Z,1000.31
2019-03-03T11:46:50.533Z,1000.27
2019-03-03T11:47:50.550Z,1000.32
2019-03-03T11:48:50.569Z,1000.17
2019-03-03T11:49:50.588Z,1000.25
2019-03-03T11:50:50.608Z,1000.25
2019-03-03T11:51:50.626Z,1000.22
2019-03-03T11:52:50.636Z,1000.27
2019-03-03T11:53:50.655Z,1000.19
2019-03-03T11:54:50.673Z,1000.21
2019-03-03T11:55:50.689Z,1000.17
2019-03-03T11:56:50.717Z,1000.20
2019-03-03T11:57:50.728Z,1000.12
2019-03-03T11:58:50.743Z,1000.11
2019-03-03T11:59:50.765Z,1000.12
2019-03-03T12:00:50.785Z,1000.15
2019-03-03T12:01:50.798Z,1000.04
2019-03-03T12:02:53.915Z,1000.07
2019-03-03T12:03:50.833Z,1000.02
2019-03-03T12:04:50.851Z,1000.03
2019-03-03T12:05:50.866Z,999.94